Time;durP1;ratioP1;P1;durP2;ratioP2;P2;SDS_P1;SDS_P2;PMS_P1;PMS_P2;Temp;Humidity;BMP_temperature;BMP_pressure;BME280_temperature;BME280_humidity;BME280_pressure;Samples;Min_cycle;Max_cycle;Signal;HPM_P1;HPM_P2
2022/10/04 00:02:38;;;;;;;3.10;1.58;;;;;;;14.16;100.00;96657.25;10441414;27;97124;-84
2022/10/04 00:07:49;;;;;;;2.20;1.52;;;;;;;14.14;100.00;96659.19;10432498;27;96869;-84
2022/10/04 00:12:58;;;;;;;3.33;1.92;;;;;;;14.15;100.00;96660.84;10435328;27;97093;-84
2022/10/04 00:18:07;;;;;;;4.03;1.50;;;;;;;14.10;100.00;96663.13;10411204;27;99415;-84
2022/10/04 00:23:27;;;;;;;4.68;1.60;;;;;;;14.06;100.00;96669.69;10437163;27;97013;-84
2022/10/04 00:28:44;;;;;;;3.55;1.83;;;;;;;14.04;100.00;96672.47;10460775;27;97233;-84
2022/10/04 00:33:49;;;;;;;4.80;2.53;;;;;;;14.03;100.00;96659.50;10444295;27;96786;-84
2022/10/04 00:39:02;;;;;;;;;;;;;;;13.89;100.00;96666.97;10420201;27;97065;-84
2022/10/04 00:44:15;;;;;;;3.85;1.70;;;;;;;13.93;100.00;96663.09;10425391;27;96876;-84
2022/10/04 00:49:23;;;;;;;2.70;1.60;;;;;;;13.92;100.00;96666.69;10421532;27;98342;-84
2022/10/04 00:54:31;;;;;;;3.42;1.33;;;;;;;13.96;100.00;96673.25;10430217;27;96709;-84
2022/10/04 00:59:38;;;;;;;5.55;2.13;;;;;;;13.97;100.00;96661.78;10415846;28;97230;-84
2022/10/04 01:04:47;;;;;;;10.20;4.65;;;;;;;13.94;100.00;96662.09;10428903;27;97147;-84
2022/10/04 01:09:54;;;;;;;7.38;3.92;;;;;;;13.89;100.00;96659.09;10415475;27;97190;-84
2022/10/04 01:15:06;;;;;;;3.80;1.75;;;;;;;13.86;100.00;96658.59;10405746;28;96819;-84
2022/10/04 01:20:28;;;;;;;3.75;1.60;;;;;;;13.85;100.00;96649.91;10425684;27;97606;-84
2022/10/04 01:25:47;;;;;;;2.70;1.90;;;;;;;13.86;100.00;96646.28;10452103;27;96921;-84
2022/10/04 01:30:50;;;;;;;3.55;1.38;;;;;;;13.87;100.00;96642.69;10433164;27;98536;-84
2022/10/04 01:35:53;;;;;;;2.97;1.27;;;;;;;13.85;100.00;96644.66;10422500;27;97329;-84
2022/10/04 01:41:02;;;;;;;3.90;1.50;;;;;;;13.86;100.00;96646.28;10454210;27;96780;-84
2022/10/04 01:46:09;;;;;;;2.50;1.50;;;;;;;13.84;100.00;96637.75;10440146;27;96831;-84
2022/10/04 01:51:17;;;;;;;2.08;1.38;;;;;;;13.87;100.00;96637.44;10425048;27;97302;-84
2022/10/04 01:56:27;;;;;;;4.32;1.95;;;;;;;13.88;100.00;96623.34;10421418;27;97097;-84
2022/10/04 02:01:35;;;;;;;4.30;1.60;;;;;;;13.84;100.00;96621.19;10442381;27;97813;-84
2022/10/04 02:06:41;;;;;;;2.70;2.00;;;;;;;13.86;100.00;96619.22;10426331;27;98421;-84
2022/10/04 02:11:51;;;;;;;3.45;1.85;;;;;;;13.90;100.00;96620.56;10437485;27;98229;-84
2022/10/04 02:16:57;;;;;;;4.85;2.08;;;;;;;13.95;100.00;96619.09;10426212;27;98245;-84
2022/10/04 02:22:03;;;;;;;4.07;1.70;;;;;;;13.89;100.00;96614.47;10418635;27;97329;-84
2022/10/04 02:27:07;;;;;;;1.83;1.33;;;;;;;13.87;100.00;96613.81;10440516;27;96920;-84
2022/10/04 02:37:32;;;;;;;1.95;1.58;;;;;;;13.86;100.00;96606.06;10416659;27;97616;-84
2022/10/04 02:42:43;;;;;;;4.07;1.50;;;;;;;13.83;100.00;96599.34;10458256;27;96898;-84
2022/10/04 02:47:51;;;;;;;1.88;1.63;;;;;;;13.84;100.00;96606.25;10442123;27;97813;-84
2022/10/04 02:52:59;;;;;;;2.70;1.58;;;;;;;13.87;100.00;96598.03;10443629;27;98740;-84
2022/10/04 02:58:10;;;;;;;2.38;1.58;;;;;;;13.87;100.00;96590.16;10421540;27;96841;-84
2022/10/04 03:03:22;;;;;;;4.05;1.88;;;;;;;13.83;100.00;96588.84;10430299;27;100675;-84
2022/10/04 03:08:27;;;;;;;2.15;1.38;;;;;;;13.79;100.00;96585.72;10411472;27;98430;-84
2022/10/04 03:13:31;;;;;;;4.60;1.70;;;;;;;13.74;100.00;96580.13;10452169;27;97057;-84
2022/10/04 03:18:36;;;;;;;2.47;1.88;;;;;;;13.72;100.00;96583.88;10437214;27;97616;-84
2022/10/04 03:23:39;;;;;;;;;;;;;;;13.69;100.00;96578.94;10421746;27;96875;-84
2022/10/04 03:28:44;;;;;;;3.63;1.60;;;;;;;13.73;100.00;96567.16;10425830;27;97213;-84
2022/10/04 03:33:47;;;;;;;6.30;1.80;;;;;;;13.63;100.00;96564.66;10436393;27;97576;-84
2022/10/04 03:38:53;;;;;;;4.07;1.50;;;;;;;13.59;100.00;96574.66;10430822;27;97648;-84
2022/10/04 03:43:57;;;;;;;2.08;1.63;;;;;;;13.55;100.00;96575.97;10443355;27;98507;-84
2022/10/04 03:49:08;;;;;;;1.63;1.30;;;;;;;13.56;100.00;96577.56;10425895;27;97701;-84
2022/10/04 03:54:16;;;;;;;2.67;1.52;;;;;;;13.51;100.00;96585.09;10418025;27;97497;-84
2022/10/04 03:59:24;;;;;;;2.45;1.50;;;;;;;13.49;100.00;96581.81;10457362;27;96974;-84
2022/10/04 04:04:40;;;;;;;3.78;1.50;;;;;;;13.48;100.00;96582.81;10438624;27;97503;-84
2022/10/04 04:09:47;;;;;;;4.68;1.50;;;;;;;13.50;100.00;96586.09;10415799;27;97107;-84
2022/10/04 04:14:53;;;;;;;4.28;1.65;;;;;;;13.44;100.00;96579.66;10443205;27;96860;-84
2022/10/04 04:19:59;;;;;;;7.93;1.92;;;;;;;13.45;100.00;96585.75;10413968;27;97265;-84
2022/10/04 04:25:14;;;;;;;4.63;1.70;;;;;;;13.36;100.00;96590.13;10427784;27;97079;-84
2022/10/04 04:30:19;;;;;;;3.95;1.60;;;;;;;13.21;100.00;96587.25;10449318;27;96777;-84
2022/10/04 04:35:25;;;;;;;3.75;1.63;;;;;;;13.22;100.00;96586.28;10416051;27;98800;-84
2022/10/04 04:40:27;;;;;;;2.75;1.80;;;;;;;13.28;100.00;96584.03;10412823;27;97374;-84
2022/10/04 04:45:34;;;;;;;5.80;1.70;;;;;;;13.27;100.00;96587.63;10444640;27;98319;-84
2022/10/04 04:50:39;;;;;;;3.40;1.40;;;;;;;13.21;100.00;96582.00;10423295;27;98666;-84
2022/10/04 04:55:44;;;;;;;2.22;1.77;;;;;;;13.17;100.00;96583.31;10388710;28;97197;-84
2022/10/04 05:01:15;;;;;;;2.67;1.92;;;;;;;13.14;100.00;96588.88;10415016;28;96699;-84
2022/10/04 05:06:25;;;;;;;4.68;1.88;;;;;;;13.08;100.00;96586.03;10424997;27;97764;-84
2022/10/04 05:11:30;;;;;;;3.60;1.52;;;;;;;13.05;100.00;96587.19;10422287;27;97734;-84
2022/10/04 05:16:42;;;;;;;2.88;1.70;;;;;;;12.99;100.00;96579.91;10433467;27;97090;-84
2022/10/04 05:21:47;;;;;;;3.47;1.80;;;;;;;12.96;100.00;96585.47;10427018;27;98937;-83
2022/10/04 05:26:53;;;;;;;4.38;1.80;;;;;;;12.89;100.00;96580.00;10415849;27;96775;-84
2022/10/04 05:32:05;;;;;;;5.10;1.85;;;;;;;12.79;100.00;96574.03;10415689;27;96858;-84
2022/10/04 05:37:30;;;;;;;2.88;1.90;;;;;;;12.78;100.00;96578.44;10416130;27;96903;-84
2022/10/04 05:42:38;;;;;;;4.55;2.50;;;;;;;12.74;100.00;96577.09;10415208;28;96795;-84
2022/10/04 05:47:43;;;;;;;4.90;2.10;;;;;;;12.62;100.00;96573.09;10421891;27;96702;-84
2022/10/04 05:52:48;;;;;;;2.97;1.42;;;;;;;12.47;100.00;96576.25;10421612;27;97729;-84
2022/10/04 05:58:09;;;;;;;2.65;1.80;;;;;;;12.44;100.00;96581.78;10414506;27;98053;-84
2022/10/04 06:03:29;;;;;;;2.15;1.50;;;;;;;12.41;100.00;96587.31;10409163;27;98049;-84
2022/10/04 06:08:49;;;;;;;2.72;1.83;;;;;;;12.32;100.00;96580.38;10409634;27;97331;-85
2022/10/04 06:14:08;;;;;;;2.75;2.10;;;;;;;12.22;100.00;96572.59;10414948;28;96882;-85
2022/10/04 06:19:50;;;;;;;2.85;1.88;;;;;;;12.11;100.00;96584.09;10395176;28;96802;-85
2022/10/04 06:24:57;;;;;;;2.85;1.70;;;;;;;12.10;100.00;96585.06;10405518;27;96984;-85
2022/10/04 06:30:04;;;;;;;2.00;1.63;;;;;;;12.10;100.00;96589.50;10457703;27;96752;-85
2022/10/04 06:35:43;;;;;;;3.28;1.45;;;;;;;12.12;100.00;96598.00;10402629;27;97552;-82
2022/10/04 06:41:06;;;;;;;3.55;1.70;;;;;;;12.14;100.00;96595.25;10443732;27;96792;-85
2022/10/04 06:46:17;;;;;;;5.47;1.75;;;;;;;12.11;100.00;96597.19;10456046;27;97615;-85
2022/10/04 06:51:29;;;;;;;2.33;1.60;;;;;;;12.15;100.00;96604.78;10379858;27;96727;-85
2022/10/04 06:57:04;;;;;;;7.75;2.20;;;;;;;12.19;100.00;96608.72;10372288;28;96960;-85
2022/10/04 07:02:14;;;;;;;2.80;1.53;;;;;;;12.25;100.00;96608.16;10376912;27;96833;-85
2022/10/04 07:07:25;;;;;;;3.50;1.35;;;;;;;12.25;100.00;96608.16;10455176;27;96731;-85
2022/10/04 07:12:32;;;;;;;3.97;1.50;;;;;;;12.30;100.00;96621.59;10416697;27;97454;-85
2022/10/04 07:17:40;;;;;;;2.90;1.45;;;;;;;12.40;100.00;96619.72;10413070;27;96779;-85
2022/10/04 07:22:49;;;;;;;4.15;1.40;;;;;;;12.44;100.00;96623.72;10414187;27;96713;-85
2022/10/04 07:33:23;;;;;;;2.53;1.67;;;;;;;12.55;100.00;96632.31;10418981;27;97245;-85
2022/10/04 07:38:29;;;;;;;4.57;2.70;;;;;;;12.60;100.00;96637.94;10419124;28;96925;-85
2022/10/04 07:43:39;;;;;;;8.77;3.67;;;;;;;12.63;100.00;96642.84;10420259;28;97130;-85
2022/10/04 07:48:42;;;;;;;7.90;4.00;;;;;;;12.72;100.00;96652.47;10434850;27;96842;-84
2022/10/04 07:53:51;;;;;;;5.20;3.88;;;;;;;12.78;100.00;96646.59;10461946;27;97148;-85
2022/10/04 07:59:18;;;;;;;3.95;2.60;;;;;;;12.86;100.00;96654.53;10461214;27;97065;-84
2022/10/04 08:04:32;;;;;;;7.10;3.80;;;;;;;12.97;100.00;96644.81;10461004;27;96853;-84
2022/10/04 08:09:43;;;;;;;4.72;3.20;;;;;;;13.07;100.00;96645.53;10423846;27;98860;-84
2022/10/04 08:14:57;;;;;;;5.22;2.80;;;;;;;13.11;100.00;96641.63;10419952;28;96696;-85
2022/10/04 08:20:19;;;;;;;5.32;2.80;;;;;;;13.10;100.00;96634.75;10419535;27;96802;-84
2022/10/04 08:25:28;;;;;;;4.47;3.10;;;;;;;13.19;100.00;96638.25;10418939;27;97849;-84
2022/10/04 08:30:47;;;;;;;5.70;3.13;;;;;;;13.28;100.00;96641.75;10417163;28;96853;-85
2022/10/04 08:36:05;;;;;;;6.38;3.40;;;;;;;13.41;100.00;96650.00;10418486;28;97008;-84
2022/10/04 08:41:44;;;;;;;3.75;3.30;;;;;;;13.55;100.00;96654.69;10418733;27;97002;-84
2022/10/04 08:47:29;;;;;;;4.93;2.85;;;;;;;13.68;100.00;96658.69;10418565;27;97420;-84
2022/10/04 08:53:07;;;;;;;4.50;2.70;;;;;;;13.80;100.00;96652.19;10385813;28;97019;-85
2022/10/04 08:58:15;;;;;;;4.38;2.72;;;;;;;13.88;100.00;96660.09;10413897;27;96875;-85
2022/10/04 09:04:01;;;;;;;3.60;2.50;;;;;;;13.94;100.00;96662.09;10429708;27;96752;-85
2022/10/04 09:09:47;;;;;;;3.03;2.45;;;;;;;13.92;100.00;96669.31;10454345;27;97046;-85
2022/10/04 09:15:17;;;;;;;7.50;2.72;;;;;;;14.02;100.00;96674.44;10417812;28;96832;-85
2022/10/04 09:20:34;;;;;;;7.13;2.85;;;;;;;14.09;100.00;96671.97;10414360;27;96842;-85
2022/10/04 09:26:04;;;;;;;4.63;2.72;;;;;;;14.23;100.00;96673.16;10416006;27;96766;-85
2022/10/04 09:31:17;;;;;;;;;;;;;;;14.24;100.00;96675.63;10416936;28;96760;-85
2022/10/04 09:36:41;;;;;;;3.90;2.30;;;;;;;14.31;100.00;96674.03;10416690;28;96797;-84
2022/10/04 09:42:04;;;;;;;2.80;2.40;;;;;;;14.40;100.00;96671.44;10416582;27;96894;-85
2022/10/04 09:47:29;;;;;;;6.38;2.50;;;;;;;14.48;100.00;96676.72;10417607;27;96893;-85
2022/10/04 09:52:40;;;;;;;;;;;;;;;14.48;100.00;96677.53;10458114;27;96928;-85
2022/10/04 09:58:00;;;;;;;3.22;2.05;;;;;;;14.52;100.00;96678.03;10457313;27;98354;-85
2022/10/04 10:03:43;;;;;;;3.67;2.05;;;;;;;14.60;100.00;96685.94;10448262;27;98482;-85
2022/10/04 10:08:58;;;;;;;2.72;1.90;;;;;;;14.74;100.00;96682.66;10412678;28;96981;-85
2022/10/04 10:14:33;;;;;;;;;;;;;;;14.83;100.00;96680.06;10413024;28;96840;-85
2022/10/04 10:20:01;;;;;;;3.38;2.10;;;;;;;14.97;100.00;96682.03;10414805;27;96841;-85
2022/10/04 10:25:26;;;;;;;2.83;2.15;;;;;;;15.05;100.00;96684.66;10414829;27;96969;-86
2022/10/04 10:30:39;;;;;;;4.28;2.40;;;;;;;15.17;100.00;96686.97;10415642;28;96872;-85
2022/10/04 10:35:52;;;;;;;3.28;2.30;;;;;;;15.20;100.00;96676.09;10414991;27;96725;-85
2022/10/04 10:41:18;;;;;;;6.05;2.75;;;;;;;15.27;100.00;96682.38;10411339;27;96752;-85
2022/10/04 10:46:29;;;;;;;;;;;;;;;15.24;100.00;96687.97;10400428;28;96799;-85
2022/10/04 10:52:06;;;;;;;2.92;1.88;;;;;;;15.38;100.00;96687.28;10409394;27;97185;-85
2022/10/04 10:57:32;;;;;;;3.78;1.90;;;;;;;15.54;100.00;96673.25;10401977;27;97707;-85
2022/10/04 11:03:11;;;;;;;5.68;2.28;;;;;;;15.64;100.00;96684.47;10424078;27;96782;-85
2022/10/04 11:08:45;;;;;;;3.67;2.50;;;;;;;15.77;100.00;96683.09;10458966;27;97210;-85
2022/10/04 11:14:11;;;;;;;2.67;2.40;;;;;;;15.91;100.00;96678.94;10420702;28;96994;-85
2022/10/04 11:19:51;;;;;;;3.45;2.60;;;;;;;16.03;100.00;96688.13;10421085;27;96823;-85
2022/10/04 11:25:33;;;;;;;3.22;1.95;;;;;;;16.11;100.00;96672.28;10420767;28;96707;-85
2022/10/04 11:31:05;;;;;;;4.57;1.95;;;;;;;16.19;100.00;96661.69;10393491;28;96880;-85
2022/10/04 11:36:28;;;;;;;3.22;2.03;;;;;;;16.34;100.00;96658.31;10405908;27;97537;-85
2022/10/04 11:41:49;;;;;;;2.85;1.73;;;;;;;16.36;100.00;96653.69;10419851;28;96837;-85
2022/10/04 11:46:59;;;;;;;3.20;2.13;;;;;;;16.45;100.00;96652.66;10420751;27;96768;-85
2022/10/04 11:52:28;;;;;;;4.53;2.10;;;;;;;16.55;100.00;96644.50;10378818;28;96617;-85
2022/10/04 11:57:41;;;;;;;2.30;2.00;;;;;;;16.66;100.00;96643.28;10377176;28;96851;-85
2022/10/04 12:03:04;;;;;;;2.60;2.03;;;;;;;16.71;100.00;96639.13;10387774;27;97050;-85
2022/10/04 12:08:23;;;;;;;3.55;1.80;;;;;;;16.75;100.00;96629.09;10418309;28;96748;-85
2022/10/04 12:13:53;;;;;;;3.13;1.85;;;;;;;16.87;100.00;96617.09;10387271;27;97866;-85
2022/10/04 12:19:38;;;;;;;4.47;2.28;;;;;;;16.95;100.00;96603.84;10377307;28;96820;-85
2022/10/04 12:25:14;;;;;;;5.45;2.30;;;;;;;16.97;100.00;96601.84;10377008;28;96651;-85
2022/10/04 12:30:25;;;;;;;4.15;2.55;;;;;;;17.00;100.00;96593.56;10377837;28;96866;-85
2022/10/04 12:35:35;;;;;;;3.70;2.08;;;;;;;17.09;100.00;96577.63;10377331;28;96832;-83
2022/10/04 12:40:43;;;;;;;2.60;2.03;;;;;;;17.18;100.00;96576.56;10377155;28;96897;-83
2022/10/04 12:46:05;;;;;;;4.75;2.00;;;;;;;17.31;100.00;96568.00;10377998;27;96767;-85
2022/10/04 12:51:25;;;;;;;3.47;2.20;;;;;;;17.44;100.00;96572.66;10375958;28;98421;-85
2022/10/04 12:56:45;;;;;;;4.13;2.10;;;;;;;17.52;100.00;96562.81;10376343;28;96799;-85
2022/10/04 13:02:02;;;;;;;4.60;2.45;;;;;;;17.60;100.00;96569.81;10374689;28;97935;-86
2022/10/04 13:07:32;;;;;;;2.35;1.98;;;;;;;17.56;100.00;96568.53;10375465;28;97021;-85
2022/10/04 13:12:40;;;;;;;3.70;2.38;;;;;;;17.67;100.00;96565.44;10405624;28;96775;-83
2022/10/04 13:17:54;;;;;;;2.15;1.83;;;;;;;17.67;100.00;96562.81;10420297;27;97093;-83
2022/10/04 13:23:03;;;;;;;6.07;2.10;;;;;;;17.68;100.00;96551.25;10416115;27;96706;-85
2022/10/04 13:28:15;;;;;;;7.20;2.20;;;;;;;17.85;100.00;96553.69;10377095;27;96968;-85
2022/10/04 13:33:29;;;;;;;2.35;1.90;;;;;;;18.08;100.00;96545.59;10374611;28;96776;-83
2022/10/04 13:39:06;;;;;;;3.67;1.90;;;;;;;18.25;100.00;96528.47;10394686;27;98517;-84
2022/10/04 13:44:35;;;;;;;3.67;1.83;;;;;;;18.46;100.00;96532.13;10381244;27;99527;-83
2022/10/04 13:49:57;;;;;;;3.42;1.75;;;;;;;18.60;100.00;96525.97;10332083;28;97167;-84
2022/10/04 14:00:57;;;;;;;3.72;1.80;;;;;;;18.95;100.00;96527.84;10369746;28;96825;-84
2022/10/04 14:06:36;;;;;;;3.05;1.50;;;;;;;19.02;100.00;96524.25;10335459;28;97682;-84
2022/10/04 14:12:09;;;;;;;2.30;1.48;;;;;;;19.09;100.00;96529.59;10354278;28;97569;-84
2022/10/04 14:17:39;;;;;;;3.83;1.40;;;;;;;19.14;100.00;96532.50;10355495;28;97846;-84
2022/10/04 14:23:07;;;;;;;3.22;1.90;;;;;;;19.22;100.00;96529.66;10327550;28;96887;-84
2022/10/04 14:28:42;;;;;;;4.45;1.55;;;;;;;19.33;100.00;96535.44;10373983;28;96776;-84
2022/10/04 14:34:09;;;;;;;3.63;1.50;;;;;;;19.35;100.00;96530.75;10374891;28;96805;-84
2022/10/04 14:39:36;;;;;;;3.13;1.50;;;;;;;19.40;100.00;96538.94;10401571;28;97663;-84
2022/10/04 14:44:56;;;;;;;4.55;1.70;;;;;;;19.56;100.00;96533.31;10415307;28;97160;-83
2022/10/04 14:50:17;;;;;;;2.95;1.38;;;;;;;19.81;100.00;96522.19;10408818;27;96918;-84
2022/10/04 14:55:48;;;;;;;2.08;1.50;;;;;;;19.87;100.00;96525.91;10392382;28;97201;-83
2022/10/04 15:01:07;;;;;;;3.65;1.55;;;;;;;19.96;100.00;96520.22;10379557;28;96834;-84
2022/10/04 15:06:20;;;;;;;3.40;1.60;;;;;;;20.04;100.00;96521.06;10451271;27;96722;-84
2022/10/04 15:11:52;;;;;;;2.55;1.30;;;;;;;20.12;100.00;96515.59;10439050;27;97267;-84
2022/10/04 15:17:26;;;;;;;3.33;1.40;;;;;;;20.15;100.00;96523.94;10400449;27;96874;-84
2022/10/04 15:22:37;;;;;;;2.13;1.45;;;;;;;20.22;100.00;96521.31;10413933;28;96948;-83
2022/10/04 15:27:55;;;;;;;2.25;1.67;;;;;;;20.25;100.00;96509.47;10380726;28;96714;-84
2022/10/04 15:33:17;;;;;;;2.70;1.50;;;;;;;20.40;100.00;96506.63;10396423;27;96747;-84
2022/10/04 15:38:31;;;;;;;2.13;1.17;;;;;;;20.64;100.00;96514.00;10462751;27;96738;-84
2022/10/04 15:43:42;;;;;;;2.77;1.30;;;;;;;20.69;100.00;96506.22;10461475;27;96726;-84
2022/10/04 15:49:12;;;;;;;1.95;1.20;;;;;;;20.78;100.00;96498.91;10445731;27;96747;-84
2022/10/04 15:54:51;;;;;;;1.70;1.25;;;;;;;20.83;100.00;96495.63;10420085;28;96913;-84
2022/10/04 16:00:07;;;;;;;4.90;1.50;;;;;;;20.80;100.00;96501.34;10417292;28;97131;-84
2022/10/04 16:05:17;;;;;;;1.85;1.20;;;;;;;20.86;100.00;96500.50;10432514;27;96980;-84
2022/10/04 16:10:27;;;;;;;1.60;1.38;;;;;;;20.97;100.00;96489.28;10445426;27;96702;-84
2022/10/04 16:15:34;;;;;;;1.60;1.13;;;;;;;20.90;100.00;96502.56;10419279;28;96933;-84
2022/10/04 16:20:55;;;;;;;1.33;1.17;;;;;;;20.74;100.00;96495.03;10420089;27;96712;-84
2022/10/04 16:26:00;;;;;;;2.45;1.30;;;;;;;20.62;100.00;96505.41;10418599;28;96743;-84
2022/10/04 16:31:24;;;;;;;3.70;1.60;;;;;;;20.15;100.00;96499.28;10413629;27;96924;-84
2022/10/04 16:36:42;;;;;;;4.53;1.50;;;;;;;19.74;100.00;96506.25;10402704;27;97089;-84
2022/10/04 16:41:54;;;;;;;4.82;1.45;;;;;;;19.34;100.00;96511.41;10400076;28;96806;-84
2022/10/04 16:47:03;;;;;;;4.53;1.75;;;;;;;18.96;100.00;96510.97;10411420;27;96957;-84
2022/10/04 16:52:23;;;;;;;3.85;1.63;;;;;;;18.64;100.00;96518.47;10411490;27;97289;-86
2022/10/04 16:57:29;;;;;;;5.75;1.92;;;;;;;18.41;100.00;96519.50;10411616;27;96986;-84
2022/10/04 17:02:53;;;;;;;4.57;1.60;;;;;;;18.14;100.00;96523.72;10416812;27;97341;-85
2022/10/04 17:08:18;;;;;;;4.38;1.73;;;;;;;17.95;100.00;96541.00;10414232;28;96867;-86
2022/10/04 17:13:27;;;;;;;3.80;1.97;;;;;;;17.77;100.00;96546.66;10404204;28;97220;-86
2022/10/04 17:18:45;;;;;;;5.97;1.70;;;;;;;17.57;100.00;96560.44;10417043;27;96886;-86
2022/10/04 17:24:20;;;;;;;3.40;1.70;;;;;;;17.31;100.00;96565.38;10414648;28;97322;-86
2022/10/04 17:29:36;;;;;;;4.05;1.95;;;;;;;16.98;100.00;96576.25;10416314;27;97090;-86
2022/10/04 17:34:55;;;;;;;3.95;1.90;;;;;;;16.72;100.00;96581.91;10399592;27;97001;-86
2022/10/04 17:40:20;;;;;;;2.95;1.80;;;;;;;16.59;100.00;96583.34;10376322;27;96979;-86
2022/10/04 17:45:46;;;;;;;5.80;2.00;;;;;;;16.44;100.00;96596.44;10374624;27;99451;-86
2022/10/04 17:56:28;;;;;;;3.40;1.92;;;;;;;16.33;100.00;96603.94;10410733;28;97272;-86
2022/10/04 18:01:36;;;;;;;2.97;1.95;;;;;;;16.22;100.00;96613.91;10374257;28;96836;-85
2022/10/04 18:06:48;;;;;;;4.28;2.00;;;;;;;16.02;100.00;96615.34;10426896;27;96744;-85
2022/10/04 18:11:56;;;;;;;2.63;1.70;;;;;;;15.93;100.00;96625.09;10441995;27;97157;-85
2022/10/04 18:17:02;;;;;;;5.90;3.60;;;;;;;15.82;100.00;96623.63;10425831;27;98176;-88
2022/10/04 18:22:14;;;;;;;2.88;1.80;;;;;;;15.68;100.00;96627.00;10409201;28;96807;-87
2022/10/04 18:27:21;;;;;;;3.88;2.10;;;;;;;15.61;100.00;96624.22;10373222;28;96746;-86
2022/10/04 18:32:33;;;;;;;2.65;2.00;;;;;;;15.50;100.00;96627.19;10376443;28;97046;-84
2022/10/04 18:37:39;;;;;;;6.00;1.80;;;;;;;15.33;100.00;96629.03;10389470;28;96935;-86
2022/10/04 18:42:51;;;;;;;2.95;1.83;;;;;;;15.23;100.00;96623.94;10401048;28;96895;-85
2022/10/04 18:47:54;;;;;;;3.55;1.80;;;;;;;15.07;100.00;96621.34;10412208;28;98401;-85
2022/10/04 18:53:26;;;;;;;4.50;2.00;;;;;;;14.87;100.00;96618.25;10398579;27;96796;-85
2022/10/04 19:04:10;;;;;;;9.45;6.88;;;;;;;14.59;100.00;96623.81;10392429;28;97077;-85
2022/10/04 19:09:24;;;;;;;5.28;2.00;;;;;;;14.50;100.00;96637.94;10382058;28;97091;-86
2022/10/04 19:14:37;;;;;;;6.65;2.13;;;;;;;14.36;100.00;96645.47;10390346;27;98702;-86
2022/10/04 19:19:48;;;;;;;7.13;2.92;;;;;;;14.28;100.00;96648.09;10418581;27;97087;-85
2022/10/04 19:25:13;;;;;;;6.30;4.60;;;;;;;14.24;100.00;96664.31;10446021;27;97239;-86
2022/10/04 19:30:20;;;;;;;23.90;16.17;;;;;;;14.16;100.00;96667.75;10420420;27;97369;-85
2022/10/04 19:35:33;;;;;;;6.55;1.92;;;;;;;14.00;100.00;96658.00;10390452;27;97572;-85
2022/10/04 19:40:46;;;;;;;4.55;2.10;;;;;;;13.93;100.00;96678.00;10393663;27;99862;-86
2022/10/04 19:46:08;;;;;;;4.47;1.73;;;;;;;13.75;100.00;96680.72;10429528;27;96920;-85
2022/10/04 19:51:19;;;;;;;3.53;1.70;;;;;;;13.74;100.00;96685.16;10410715;27;97142;-85
2022/10/04 19:56:28;;;;;;;4.80;2.00;;;;;;;13.63;100.00;96690.66;10451014;27;96731;-86
2022/10/04 20:01:34;;;;;;;3.17;2.15;;;;;;;13.48;100.00;96690.44;10414124;27;96909;-86
2022/10/04 20:06:39;;;;;;;1.73;1.58;;;;;;;13.39;100.00;96691.34;10385646;27;99563;-85
2022/10/04 20:11:51;;;;;;;3.63;1.50;;;;;;;13.34;100.00;96696.22;10404494;28;97015;-85
2022/10/04 20:17:05;;;;;;;4.35;2.50;;;;;;;13.29;100.00;96706.34;10413361;27;98336;-85
2022/10/04 20:22:29;;;;;;;3.55;1.85;;;;;;;13.30;100.00;96713.25;10412115;27;97444;-86
2022/10/04 20:28:02;;;;;;;12.60;2.25;;;;;;;13.30;100.00;96723.75;10402993;27;96903;-80
2022/10/04 20:33:05;;;;;;;3.20;1.98;;;;;;;13.04;100.00;96716.66;10426936;27;98671;-80
2022/10/04 20:38:14;;;;;;;7.28;2.58;;;;;;;12.58;100.00;96731.59;10422348;27;97135;-80
2022/10/04 20:43:53;;;;;;;6.70;2.90;;;;;;;12.14;100.00;96741.91;10421308;27;97676;-80
2022/10/04 20:48:56;;;;;;;6.00;3.28;;;;;;;11.91;100.00;96748.34;10416584;27;97016;-80
2022/10/04 20:54:00;;;;;;;6.63;3.75;;;;;;;11.68;100.00;96755.72;10434042;27;97478;-80
2022/10/04 20:59:04;;;;;;;5.53;2.42;;;;;;;11.57;100.00;96766.34;10414235;28;97487;-80
2022/10/04 21:04:14;;;;;;;6.17;2.60;;;;;;;11.57;100.00;96762.91;10436354;27;97503;-80
2022/10/04 21:09:17;;;;;;;4.65;2.47;;;;;;;11.54;100.00;96766.63;10435226;27;97079;-81
2022/10/04 21:14:25;;;;;;;6.10;2.60;;;;;;;11.34;100.00;96773.69;10405085;27;98649;-80
2022/10/04 21:19:50;;;;;;;2.58;2.10;;;;;;;11.20;100.00;96767.06;10411615;27;96996;-81
2022/10/04 21:24:54;;;;;;;4.22;2.25;;;;;;;11.10;100.00;96789.75;10418509;27;97017;-82
2022/10/04 21:29:59;;;;;;;5.72;2.08;;;;;;;11.04;100.00;96785.09;10416608;27;96819;-82
2022/10/04 21:35:03;;;;;;;3.25;1.85;;;;;;;11.01;100.00;96794.03;10427994;27;96842;-82
2022/10/04 21:40:07;;;;;;;4.05;1.90;;;;;;;10.93;100.00;96792.09;10427682;27;97583;-81
2022/10/04 21:45:11;;;;;;;4.80;2.07;;;;;;;10.74;100.00;96794.69;10424901;27;96877;-82
2022/10/04 21:50:14;;;;;;;3.13;2.00;;;;;;;10.71;100.00;96802.81;10429040;27;96849;-82
2022/10/04 21:55:17;;;;;;;2.33;2.10;;;;;;;10.69;100.00;96802.94;10419714;27;96869;-82
2022/10/04 22:00:21;;;;;;;3.75;2.20;;;;;;;10.68;100.00;96810.91;10413081;27;96833;-82
2022/10/04 22:05:24;;;;;;;3.47;2.00;;;;;;;10.51;100.00;96810.59;10438582;27;97220;-82
2022/10/04 22:10:27;;;;;;;4.45;1.75;;;;;;;10.38;100.00;96810.81;10427036;27;98162;-81
2022/10/04 22:15:31;;;;;;;3.45;2.00;;;;;;;10.37;100.00;96803.97;10415460;28;96760;-81
2022/10/04 22:20:34;;;;;;;5.00;2.00;;;;;;;10.38;100.00;96812.59;10441515;27;97739;-82
2022/10/04 22:25:37;;;;;;;4.00;2.20;;;;;;;10.41;100.00;96805.34;10429128;27;97105;-81
2022/10/04 22:30:43;;;;;;;3.92;2.38;;;;;;;10.36;100.00;96806.69;10411724;27;96997;-81
2022/10/04 22:35:46;;;;;;;4.18;2.05;;;;;;;10.31;100.00;96807.09;10424581;27;96909;-81
2022/10/04 22:40:49;;;;;;;2.88;2.05;;;;;;;10.23;100.00;96805.16;10423693;27;98075;-80
2022/10/04 22:45:54;;;;;;;5.07;2.13;;;;;;;10.17;100.00;96792.59;10412667;27;98617;-81
2022/10/04 22:50:57;;;;;;;54.08;33.92;;;;;;;10.14;100.00;96794.66;10417277;27;98573;-81
2022/10/04 22:56:00;;;;;;;7.13;4.28;;;;;;;10.11;100.00;96798.34;10420997;27;96993;-81
2022/10/04 23:01:12;;;;;;;2.80;2.28;;;;;;;10.06;100.00;96805.72;10455119;27;96798;-81
2022/10/04 23:06:15;;;;;;;3.85;2.80;;;;;;;9.99;100.00;96807.22;10423636;27;97360;-82
2022/10/04 23:11:18;;;;;;;5.43;2.85;;;;;;;9.89;100.00;96808.94;10417822;27;97153;-82
2022/10/04 23:16:25;;;;;;;7.68;3.47;;;;;;;9.80;100.00;96811.41;10425636;27;97461;-82
2022/10/04 23:21:33;;;;;;;8.40;3.20;;;;;;;9.77;100.00;96810.81;10444775;27;99138;-82
2022/10/04 23:26:38;;;;;;;4.85;2.58;;;;;;;9.77;100.00;96805.59;10378774;28;96850;-82
2022/10/04 23:31:45;;;;;;;5.43;3.00;;;;;;;9.68;100.00;96802.00;10438119;27;97337;-82
2022/10/04 23:36:48;;;;;;;4.18;2.70;;;;;;;9.65;100.00;96804.84;10432914;27;97658;-82
2022/10/04 23:41:53;;;;;;;5.13;3.13;;;;;;;9.61;100.00;96806.03;10445060;27;97109;-82
2022/10/04 23:46:57;;;;;;;5.78;3.60;;;;;;;9.57;100.00;96799.44;10449023;27;97057;-82
2022/10/04 23:52:02;;;;;;;6.53;4.07;;;;;;;9.52;100.00;96796.38;10418906;27;96928;-82
2022/10/04 23:57:08;;;;;;;6.47;3.38;;;;;;;9.47;100.00;96804.56;10445370;27;98490;-82
